createdAt,value
2018-02-16T00:00:29.461Z,18.76
2018-02-16T00:01:38.191Z,18.8
2018-02-16T00:02:47.424Z,18.67
2018-02-16T00:03:56.415Z,18.82
2018-02-16T00:05:06.204Z,18.78
2018-02-16T00:06:15.438Z,18.84
2018-02-16T00:07:24.218Z,18.88
2018-02-16T00:08:32.980Z,18.81
2018-02-16T00:09:42.023Z,18.84
2018-02-16T00:10:51.011Z,18.98
2018-02-16T00:11:59.754Z,18.92
2018-02-16T00:13:08.775Z,18.91
2018-02-16T00:14:18.061Z,18.94
2018-02-16T00:15:27.061Z,18.94
2018-02-16T00:16:36.062Z,19.02
2018-02-16T00:17:45.259Z,19.08
2018-02-16T00:18:54.574Z,19.04
2018-02-16T00:20:03.552Z,19.1
2018-02-16T00:21:12.515Z,19.11
2018-02-16T00:22:21.479Z,19.19
2018-02-16T00:23:30.700Z,19.25
2018-02-16T00:24:39.661Z,19.22
2018-02-16T00:25:48.882Z,19.22
2018-02-16T00:26:57.576Z,19.29
2018-02-16T00:28:06.541Z,19.29
2018-02-16T00:29:15.235Z,19.22
2018-02-16T00:30:24.493Z,19.22
2018-02-16T00:31:33.287Z,19.25
2018-02-16T00:32:42.308Z,19.25
2018-02-16T00:33:51.536Z,19.23
2018-02-16T00:35:00.930Z,19.29
2018-02-16T00:36:09.739Z,19.32
2018-02-16T00:37:18.436Z,19.23
2018-02-16T00:38:27.380Z,19.25
2018-02-16T00:39:36.666Z,19.28
2018-02-16T00:40:45.480Z,19.23
2018-02-16T00:41:54.460Z,19.26
2018-02-16T00:43:03.769Z,19.23
2018-02-16T00:44:13.327Z,19.25
2018-02-16T00:45:22.301Z,19.21
2018-02-16T00:46:31.320Z,19.25
2018-02-16T00:47:40.041Z,19.31
2018-02-16T00:48:49.076Z,19.29
2018-02-16T00:49:58.070Z,19.22
2018-02-16T00:51:06.821Z,19.21
2018-02-16T00:52:15.794Z,19.26
2018-02-16T00:53:25.010Z,19.25
2018-02-16T00:54:33.983Z,19.19
2018-02-16T00:55:42.851Z,19.22
2018-02-16T00:56:51.584Z,19.18
2018-02-16T00:58:00.633Z,19.21
2018-02-16T00:59:09.623Z,19.11
2018-02-16T01:00:18.646Z,19.14
2018-02-16T01:01:27.879Z,19.08
2018-02-16T01:02:36.886Z,19.07
2018-02-16T01:03:45.980Z,19.11
2018-02-16T01:04:55.325Z,19.08
2018-02-16T01:06:04.366Z,19.07
2018-02-16T01:07:13.448Z,19.04
2018-02-16T01:08:22.162Z,19.02
2018-02-16T01:09:31.704Z,18.99
2018-02-16T01:10:41.270Z,19
2018-02-16T01:11:50.541Z,19.06
2018-02-16T01:12:59.866Z,19.02
2018-02-16T01:14:08.908Z,19.04
2018-02-16T01:15:18.150Z,18.98
2018-02-16T01:16:26.855Z,19
2018-02-16T01:17:35.568Z,19.06
2018-02-16T01:18:44.846Z,18.99
2018-02-16T01:19:53.924Z,18.94
2018-02-16T01:21:02.885Z,18.98
2018-02-16T01:22:12.413Z,18.9
2018-02-16T01:23:21.914Z,18.94
2018-02-16T01:24:30.890Z,18.99
2018-02-16T01:25:39.642Z,18.95
2018-02-16T01:26:48.357Z,18.95
2018-02-16T01:27:57.612Z,18.88
2018-02-16T01:29:06.888Z,18.92
2018-02-16T01:30:15.586Z,18.94
2018-02-16T01:31:24.591Z,18.94
2018-02-16T01:32:33.612Z,18.94
2018-02-16T01:33:42.607Z,18.91
2018-02-16T01:34:51.728Z,18.9
2018-02-16T01:36:00.708Z,18.87
2018-02-16T01:37:09.682Z,18.9
2018-02-16T01:38:18.677Z,18.94
2018-02-16T01:39:27.697Z,18.91
2018-02-16T01:40:36.671Z,18.81
2018-02-16T01:41:45.420Z,18.8
2018-02-16T01:42:54.433Z,18.87
2018-02-16T01:44:03.153Z,18.87
2018-02-16T01:45:12.462Z,18.91
2018-02-16T01:46:21.698Z,18.81
2018-02-16T01:47:30.926Z,18.84
2018-02-16T01:48:39.906Z,18.87
2018-02-16T01:49:48.885Z,18.85
2018-02-16T01:50:57.613Z,18.85
2018-02-16T01:52:06.986Z,18.8
2018-02-16T01:53:15.660Z,18.82
2018-02-16T01:54:24.339Z,18.76
2018-02-16T01:55:33.596Z,18.78
2018-02-16T01:56:42.652Z,18.78
2018-02-16T01:57:51.600Z,18.8
2018-02-16T01:59:00.896Z,18.75
2018-02-16T02:00:09.885Z,18.82
2018-02-16T02:01:19.112Z,18.81
2018-02-16T02:02:28.416Z,18.81
2018-02-16T02:03:37.478Z,18.81
2018-02-16T02:04:46.971Z,18.78
2018-02-16T02:05:55.675Z,18.78
2018-02-16T02:07:04.375Z,18.76
2018-02-16T02:08:13.904Z,18.81
2018-02-16T02:09:23.184Z,18.76
2018-02-16T02:10:32.413Z,18.81
2018-02-16T02:11:41.151Z,18.82
2018-02-16T02:12:50.402Z,18.73
2018-02-16T02:13:59.090Z,18.72
2018-02-16T02:15:07.795Z,18.8
2018-02-16T02:16:16.596Z,18.8
2018-02-16T02:17:25.554Z,18.8
2018-02-16T02:18:34.515Z,18.76
2018-02-16T02:19:43.504Z,18.75
2018-02-16T02:20:53.001Z,18.72
2018-02-16T02:22:01.981Z,18.81
2018-02-16T02:23:11.281Z,18.69
2018-02-16T02:24:20.012Z,18.75
2018-02-16T02:25:29.473Z,18.75
2018-02-16T02:26:38.697Z,18.73
2018-02-16T02:27:47.960Z,18.7
2018-02-16T02:28:57.216Z,18.76
2018-02-16T02:30:06.243Z,18.75
2018-02-16T02:31:15.500Z,18.7
2018-02-16T02:32:24.476Z,18.7
2018-02-16T02:33:33.181Z,18.75
2018-02-16T02:34:42.212Z,18.75
2018-02-16T02:35:51.780Z,18.7
2018-02-16T02:37:00.811Z,18.69
2018-02-16T02:38:10.043Z,18.72
2018-02-16T02:39:19.307Z,18.75
2018-02-16T02:40:29.090Z,18.75
2018-02-16T02:41:38.306Z,18.8
2018-02-16T02:42:47.029Z,18.76
2018-02-16T02:43:56.818Z,18.82
2018-02-16T02:45:05.795Z,18.78
2018-02-16T02:46:15.264Z,18.67
2018-02-16T02:47:24.247Z,18.7
2018-02-16T02:48:32.970Z,18.7
2018-02-16T02:49:41.937Z,18.72
2018-02-16T02:50:51.752Z,18.7
2018-02-16T02:52:01.276Z,18.67
2018-02-16T02:53:10.230Z,18.7
2018-02-16T02:54:20.233Z,18.73
2018-02-16T02:55:29.216Z,18.69
2018-02-16T02:56:38.704Z,18.75
2018-02-16T02:57:47.972Z,18.69
2018-02-16T02:58:57.473Z,18.69
2018-02-16T03:00:06.463Z,18.66
2018-02-16T03:01:15.426Z,18.65
2018-02-16T03:02:24.137Z,18.62
2018-02-16T03:03:33.362Z,18.69
2018-02-16T03:04:42.643Z,18.62
2018-02-16T03:05:51.578Z,18.67
2018-02-16T03:07:00.796Z,18.65
2018-02-16T03:08:09.498Z,18.62
2018-02-16T03:09:19.005Z,18.7
2018-02-16T03:10:27.686Z,18.7
2018-02-16T03:11:36.909Z,18.58
2018-02-16T03:12:46.417Z,18.67
2018-02-16T03:13:55.389Z,18.7
2018-02-16T03:15:04.079Z,18.62
2018-02-16T03:16:13.303Z,18.58
2018-02-16T03:17:22.006Z,18.65
2018-02-16T03:18:31.510Z,18.67
2018-02-16T03:19:40.209Z,18.62
2018-02-16T03:20:49.187Z,18.65
2018-02-16T03:21:58.461Z,18.57
2018-02-16T03:23:07.425Z,18.65
2018-02-16T03:24:16.374Z,18.65
2018-02-16T03:25:25.885Z,18.7
2018-02-16T03:26:35.427Z,18.62
2018-02-16T03:27:44.657Z,18.62
2018-02-16T03:28:53.931Z,18.69
2018-02-16T03:30:03.182Z,18.6
2018-02-16T03:31:12.493Z,18.6
2018-02-16T03:32:21.705Z,18.66
2018-02-16T03:33:30.685Z,18.62
2018-02-16T03:34:39.687Z,18.58
2018-02-16T03:35:48.655Z,18.65
2018-02-16T03:36:57.611Z,18.62
2018-02-16T03:38:06.586Z,18.67
2018-02-16T03:39:15.524Z,18.75
2018-02-16T03:40:24.756Z,18.67
2018-02-16T03:41:33.491Z,18.66
2018-02-16T03:42:42.737Z,18.67
2018-02-16T03:43:51.480Z,18.65
2018-02-16T03:45:00.240Z,18.65
2018-02-16T03:46:09.243Z,18.67
2018-02-16T03:47:17.964Z,18.72
2018-02-16T03:48:26.938Z,18.6
2018-02-16T03:49:35.647Z,18.67
2018-02-16T03:50:44.371Z,18.63
2018-02-16T03:51:53.601Z,18.65
2018-02-16T03:53:03.394Z,18.67
2018-02-16T03:54:12.380Z,18.7
2018-02-16T03:55:21.359Z,18.55
2018-02-16T03:56:30.338Z,18.63
2018-02-16T03:57:39.320Z,18.63
2018-02-16T03:58:48.531Z,18.7
2018-02-16T03:59:57.533Z,18.63
2018-02-16T04:01:06.756Z,18.65
2018-02-16T04:02:15.710Z,18.6
2018-02-16T04:03:24.502Z,18.63
2018-02-16T04:04:33.772Z,18.6
2018-02-16T04:05:42.519Z,18.65
2018-02-16T04:06:51.523Z,18.57
2018-02-16T04:08:00.780Z,18.57
2018-02-16T04:09:09.499Z,18.57
2018-02-16T04:10:18.713Z,18.57
2018-02-16T04:11:27.945Z,18.58
2018-02-16T04:12:36.906Z,18.6
2018-02-16T04:13:45.851Z,18.58
2018-02-16T04:14:54.851Z,18.57
2018-02-16T04:16:04.339Z,18.6
2018-02-16T04:17:13.303Z,18.54
2018-02-16T04:18:22.288Z,18.57
2018-02-16T04:19:31.012Z,18.58
2018-02-16T04:20:39.980Z,18.57
2018-02-16T04:21:48.996Z,18.57
2018-02-16T04:22:57.678Z,18.54
2018-02-16T04:24:06.930Z,18.6
2018-02-16T04:25:15.971Z,18.54
2018-02-16T04:26:24.958Z,18.6
2018-02-16T04:27:34.479Z,18.54
2018-02-16T04:28:43.208Z,18.65
2018-02-16T04:29:52.266Z,18.57
2018-02-16T04:31:01.532Z,18.63
2018-02-16T04:32:10.499Z,18.57
2018-02-16T04:33:20.019Z,18.55
2018-02-16T04:34:29.259Z,18.6
2018-02-16T04:35:38.237Z,18.58
2018-02-16T04:36:47.274Z,18.57
2018-02-16T04:37:56.788Z,18.57
2018-02-16T04:39:06.547Z,18.55
2018-02-16T04:40:15.632Z,18.55
2018-02-16T04:41:24.659Z,18.57
2018-02-16T04:42:34.406Z,18.54
2018-02-16T04:43:43.121Z,18.58
2018-02-16T04:44:52.100Z,18.58
2018-02-16T04:46:01.124Z,18.62
2018-02-16T04:47:09.864Z,18.6
2018-02-16T04:48:19.347Z,18.62
2018-02-16T04:49:28.371Z,18.65
2018-02-16T04:50:37.609Z,18.58
2018-02-16T04:51:46.569Z,18.57
2018-02-16T04:52:55.795Z,18.58
2018-02-16T04:54:05.090Z,18.57
2018-02-16T04:55:14.074Z,18.58
2018-02-16T04:56:23.342Z,18.58
2018-02-16T04:57:32.329Z,18.57
2018-02-16T04:58:41.052Z,18.57
2018-02-16T04:59:50.104Z,18.57
2018-02-16T05:00:59.200Z,18.57
2018-02-16T05:02:08.423Z,18.57
2018-02-16T05:03:17.643Z,18.52
2018-02-16T05:04:26.604Z,18.52
2018-02-16T05:05:35.573Z,18.5
2018-02-16T05:06:44.798Z,18.57
2018-02-16T05:07:53.484Z,18.54
2018-02-16T05:09:02.494Z,18.6
2018-02-16T05:10:12.012Z,18.57
2018-02-16T05:11:21.481Z,18.57
2018-02-16T05:12:30.733Z,18.55
2018-02-16T05:13:40.255Z,18.54
2018-02-16T05:14:49.209Z,18.54
2018-02-16T05:15:58.203Z,18.5
2018-02-16T05:17:07.707Z,18.5
2018-02-16T05:18:16.794Z,18.45
2018-02-16T05:19:25.757Z,18.55
2018-02-16T05:20:35.056Z,18.52
2018-02-16T05:21:43.792Z,18.45
2018-02-16T05:22:53.033Z,18.54
2018-02-16T05:24:02.652Z,18.45
2018-02-16T05:25:11.896Z,18.52
2018-02-16T05:26:21.119Z,18.45
2018-02-16T05:27:30.139Z,18.51
2018-02-16T05:28:39.087Z,18.44
2018-02-16T05:29:48.032Z,18.54
2018-02-16T05:30:57.255Z,18.47
2018-02-16T05:32:06.774Z,18.5
2018-02-16T05:33:15.746Z,18.57
2018-02-16T05:34:25.015Z,18.57
2018-02-16T05:35:33.953Z,18.58
2018-02-16T05:36:42.644Z,18.6
2018-02-16T05:37:51.439Z,18.62
2018-02-16T05:39:00.905Z,18.69
2018-02-16T05:40:09.858Z,18.78
2018-02-16T05:41:18.556Z,18.82
2018-02-16T05:42:28.608Z,18.94
2018-02-16T05:43:37.284Z,18.92
2018-02-16T05:44:46.792Z,19.04
2018-02-16T05:45:56.265Z,19.07
2018-02-16T05:47:05.218Z,19.11
2018-02-16T05:48:14.156Z,19.23
2018-02-16T05:49:22.828Z,19.29
2018-02-16T05:50:31.834Z,19.29
2018-02-16T05:51:41.074Z,19.29
2018-02-16T05:52:50.600Z,19.43
2018-02-16T05:54:00.117Z,19.47
2018-02-16T05:55:09.079Z,19.4
2018-02-16T05:56:18.552Z,19.59
2018-02-16T05:57:27.759Z,19.55
2018-02-16T05:58:36.456Z,19.65
2018-02-16T05:59:45.492Z,19.69
2018-02-16T06:00:54.730Z,19.66
2018-02-16T06:02:03.742Z,19.71
2018-02-16T06:03:12.697Z,19.91
2018-02-16T06:04:21.409Z,19.84
2018-02-16T06:05:30.348Z,19.87
2018-02-16T06:06:39.322Z,19.94
2018-02-16T06:07:49.056Z,19.98
2018-02-16T06:08:58.281Z,19.94
2018-02-16T06:10:07.343Z,20.11
2018-02-16T06:11:16.039Z,20.13
2018-02-16T06:12:25.054Z,20.17
2018-02-16T06:13:33.737Z,20.21
2018-02-16T06:14:42.958Z,20.17
2018-02-16T06:15:52.197Z,20.28
2018-02-16T06:17:01.438Z,20.32
2018-02-16T06:18:10.912Z,20.38
2018-02-16T06:19:19.895Z,20.39
2018-02-16T06:20:29.428Z,20.38
2018-02-16T06:21:38.634Z,20.43
2018-02-16T06:22:47.655Z,20.48
2018-02-16T06:23:56.704Z,20.51
2018-02-16T06:25:05.667Z,20.54
2018-02-16T06:26:14.636Z,20.62
2018-02-16T06:27:23.848Z,20.64
2018-02-16T06:28:33.312Z,20.72
2018-02-16T06:29:42.579Z,20.67
2018-02-16T06:30:52.099Z,20.69
2018-02-16T06:32:01.355Z,20.79
2018-02-16T06:33:10.367Z,20.82
2018-02-16T06:34:19.327Z,20.84
2018-02-16T06:35:28.815Z,20.91
2018-02-16T06:36:37.553Z,20.91
2018-02-16T06:37:46.568Z,20.99
2018-02-16T06:38:55.555Z,20.99
2018-02-16T06:40:04.553Z,21.01
2018-02-16T06:41:13.522Z,21.04
2018-02-16T06:42:22.465Z,21.09
2018-02-16T06:43:31.728Z,21.16
2018-02-16T06:44:41.463Z,21.24
2018-02-16T06:45:50.673Z,21.27
2018-02-16T06:46:59.355Z,21.31
2018-02-16T06:48:08.141Z,21.29
2018-02-16T06:49:17.148Z,21.34
2018-02-16T06:50:25.957Z,21.34
2018-02-16T06:51:34.934Z,21.37
2018-02-16T06:52:43.618Z,21.29
2018-02-16T06:53:52.300Z,21.4
2018-02-16T06:55:01.260Z,21.47
2018-02-16T06:56:10.759Z,21.42
2018-02-16T06:57:20.250Z,21.43
2018-02-16T06:58:29.225Z,21.53
2018-02-16T06:59:38.201Z,21.49
2018-02-16T07:00:47.412Z,21.52
2018-02-16T07:01:56.665Z,21.58
2018-02-16T07:03:05.662Z,21.53
2018-02-16T07:04:14.732Z,21.59
2018-02-16T07:05:23.726Z,21.54
2018-02-16T07:06:32.958Z,21.54
2018-02-16T07:07:41.639Z,21.58
2018-02-16T07:08:51.165Z,21.59
2018-02-16T07:10:00.131Z,21.54
2018-02-16T07:11:09.098Z,21.52
2018-02-16T07:12:18.325Z,21.43
2018-02-16T07:13:27.068Z,21.52
2018-02-16T07:14:36.061Z,21.43
2018-02-16T07:15:45.049Z,21.47
2018-02-16T07:16:54.287Z,21.37
2018-02-16T07:18:03.249Z,21.4
2018-02-16T07:19:12.237Z,21.44
2018-02-16T07:20:21.432Z,21.32
2018-02-16T07:21:30.698Z,21.29
2018-02-16T07:22:39.955Z,21.38
2018-02-16T07:23:49.196Z,21.32
2018-02-16T07:24:57.935Z,21.25
2018-02-16T07:26:07.484Z,21.24
2018-02-16T07:27:16.489Z,21.17
2018-02-16T07:28:25.525Z,21.14
2018-02-16T07:29:34.251Z,21.12
2018-02-16T07:30:43.757Z,21.06
2018-02-16T07:31:52.784Z,21.01
2018-02-16T07:33:01.518Z,20.99
2018-02-16T07:34:10.220Z,20.95
2018-02-16T07:35:19.435Z,20.91
2018-02-16T07:36:28.660Z,20.87
2018-02-16T07:37:37.359Z,20.87
2018-02-16T07:38:46.581Z,20.85
2018-02-16T07:39:55.258Z,20.82
2018-02-16T07:41:04.213Z,20.79
2018-02-16T07:42:13.447Z,20.67
2018-02-16T07:43:22.139Z,20.69
2018-02-16T07:44:31.094Z,20.67
2018-02-16T07:45:39.794Z,20.67
2018-02-16T07:46:48.749Z,20.59
2018-02-16T07:47:58.256Z,20.61
2018-02-16T07:49:07.284Z,20.54
2018-02-16T07:50:16.498Z,20.52
2018-02-16T07:51:25.177Z,20.54
2018-02-16T07:52:34.131Z,20.5
2018-02-16T07:53:43.137Z,20.55
2018-02-16T07:54:51.836Z,20.47
2018-02-16T07:56:00.808Z,20.47
2018-02-16T07:57:09.837Z,20.35
2018-02-16T07:58:18.783Z,20.47
2018-02-16T07:59:28.522Z,20.35
2018-02-16T08:00:37.496Z,20.35
2018-02-16T08:01:46.190Z,20.29
2018-02-16T08:02:55.178Z,20.24
2018-02-16T08:04:04.188Z,20.31
2018-02-16T08:05:13.411Z,20.14
2018-02-16T08:06:22.376Z,20.16
2018-02-16T08:07:31.362Z,20.18
2018-02-16T08:08:40.080Z,20.21
2018-02-16T08:09:49.321Z,20.21
2018-02-16T08:10:58.043Z,20.21
2018-02-16T08:12:07.331Z,20.16
2018-02-16T08:13:16.281Z,20.06
2018-02-16T08:14:24.976Z,20.06
2018-02-16T08:15:34.162Z,20.1
2018-02-16T08:16:43.204Z,20.11
2018-02-16T08:17:51.908Z,20.06
2018-02-16T08:19:01.115Z,20.13
2018-02-16T08:20:10.342Z,20.06
2018-02-16T08:21:19.599Z,20.02
2018-02-16T08:22:28.835Z,20.01
2018-02-16T08:23:38.058Z,19.98
2018-02-16T08:24:47.306Z,19.95
2018-02-16T08:25:56.021Z,19.96
2018-02-16T08:27:04.781Z,19.94
2018-02-16T08:28:13.466Z,19.95
2018-02-16T08:29:22.159Z,20.03
2018-02-16T08:30:31.114Z,19.91
2018-02-16T08:31:40.095Z,19.95
2018-02-16T08:32:49.040Z,19.98
2018-02-16T08:33:58.077Z,20.01
2018-02-16T08:35:07.050Z,20.03
2018-02-16T08:36:16.537Z,20.03
2018-02-16T08:37:25.769Z,19.92
2018-02-16T08:38:35.017Z,19.91
2018-02-16T08:39:43.974Z,20.05
2018-02-16T08:40:52.915Z,20.02
2018-02-16T08:42:01.857Z,19.94
2018-02-16T08:43:10.803Z,19.88
2018-02-16T08:44:19.764Z,19.94
2018-02-16T08:45:28.986Z,19.83
2018-02-16T08:46:37.952Z,19.94
2018-02-16T08:47:47.194Z,19.88
2018-02-16T08:48:56.450Z,19.84
2018-02-16T08:50:05.398Z,19.88
2018-02-16T08:51:14.166Z,19.83
2018-02-16T08:52:22.870Z,19.86
2018-02-16T08:53:32.102Z,19.83
2018-02-16T08:54:41.601Z,19.84
2018-02-16T08:55:50.800Z,19.84
2018-02-16T08:56:59.750Z,19.87
2018-02-16T08:58:08.463Z,19.87
2018-02-16T08:59:17.697Z,19.92
2018-02-16T09:00:26.682Z,19.86
2018-02-16T09:01:36.177Z,19.84
2018-02-16T09:02:45.109Z,19.83
2018-02-16T09:03:54.063Z,19.91
2018-02-16T09:05:02.790Z,19.91
2018-02-16T09:06:11.753Z,19.92
2018-02-16T09:07:21.491Z,19.87
2018-02-16T09:08:30.699Z,19.8
2018-02-16T09:09:39.639Z,19.92
2018-02-16T09:10:49.369Z,19.92
2018-02-16T09:11:58.311Z,19.86
2018-02-16T09:13:07.536Z,19.92
2018-02-16T09:14:16.528Z,19.98
2018-02-16T09:15:25.504Z,19.98
2018-02-16T09:16:34.442Z,19.88
2018-02-16T09:17:43.393Z,20.1
2018-02-16T09:18:52.327Z,20.03
2018-02-16T09:20:01.284Z,19.95
2018-02-16T09:21:10.251Z,19.99
2018-02-16T09:22:18.964Z,19.98
2018-02-16T09:23:28.188Z,19.99
2018-02-16T09:24:37.160Z,19.98
2018-02-16T09:25:46.389Z,20.02
2018-02-16T09:26:55.339Z,19.99
2018-02-16T09:28:04.364Z,19.98
2018-02-16T09:29:13.300Z,20.06
2018-02-16T09:30:22.037Z,19.98
2018-02-16T09:31:30.778Z,19.98
2018-02-16T09:32:39.450Z,19.98
2018-02-16T09:33:48.405Z,20.02
2018-02-16T09:34:57.373Z,20.02
2018-02-16T09:36:06.345Z,19.98
2018-02-16T09:37:15.285Z,19.98
2018-02-16T09:38:24.512Z,20.03
2018-02-16T09:39:33.245Z,20.02
2018-02-16T09:40:42.727Z,19.98
2018-02-16T09:41:51.441Z,20.03
2018-02-16T09:43:00.406Z,20.06
2018-02-16T09:44:09.624Z,20.01
2018-02-16T09:45:18.596Z,19.98
2018-02-16T09:46:27.589Z,19.98
2018-02-16T09:47:36.531Z,20.11
2018-02-16T09:48:45.503Z,20.05
2018-02-16T09:49:54.734Z,20.08
2018-02-16T09:51:03.501Z,20.05
2018-02-16T09:52:12.519Z,20.01
2018-02-16T09:53:21.467Z,20.08
2018-02-16T09:54:30.690Z,20.02
2018-02-16T09:55:39.615Z,20.05
2018-02-16T09:56:48.560Z,19.99
2018-02-16T09:57:57.522Z,19.99
2018-02-16T09:59:06.481Z,20.01
2018-02-16T10:00:15.952Z,20.02
2018-02-16T10:01:24.919Z,20.01
2018-02-16T10:02:33.882Z,19.99
2018-02-16T10:03:43.182Z,20.01
2018-02-16T10:04:52.159Z,19.96
2018-02-16T10:06:01.148Z,19.94
2018-02-16T10:07:10.160Z,19.99
2018-02-16T10:08:19.092Z,19.86
2018-02-16T10:09:27.797Z,19.96
2018-02-16T10:10:36.752Z,19.81
2018-02-16T10:11:46.004Z,19.92
2018-02-16T10:12:54.707Z,19.86
2018-02-16T10:14:03.964Z,19.94
2018-02-16T10:15:12.916Z,19.78
2018-02-16T10:16:22.417Z,19.88
2018-02-16T10:17:31.361Z,19.77
2018-02-16T10:18:40.071Z,19.83
2018-02-16T10:19:49.269Z,19.86
2018-02-16T10:20:57.935Z,19.77
2018-02-16T10:22:06.629Z,19.73
2018-02-16T10:23:15.345Z,19.83
2018-02-16T10:24:24.037Z,19.83
2018-02-16T10:25:32.983Z,19.84
2018-02-16T10:26:41.956Z,19.73
2018-02-16T10:27:51.173Z,19.78
2018-02-16T10:29:00.425Z,19.81
2018-02-16T10:30:09.381Z,19.76
2018-02-16T10:31:18.347Z,19.83
2018-02-16T10:32:27.330Z,19.87
2018-02-16T10:33:36.608Z,19.76
2018-02-16T10:34:45.557Z,19.77
2018-02-16T10:35:54.538Z,19.81
2018-02-16T10:37:03.259Z,19.74
2018-02-16T10:38:12.201Z,19.83
2018-02-16T10:39:20.897Z,19.74
2018-02-16T10:40:30.120Z,19.8
2018-02-16T10:41:39.355Z,19.69
2018-02-16T10:42:48.298Z,19.74
2018-02-16T10:43:57.054Z,19.69
2018-02-16T10:45:06.302Z,19.73
2018-02-16T10:46:15.019Z,19.74
2018-02-16T10:47:23.704Z,19.71
2018-02-16T10:48:32.919Z,19.68
2018-02-16T10:49:41.923Z,19.76
2018-02-16T10:50:51.218Z,19.69
2018-02-16T10:52:00.723Z,19.68
2018-02-16T10:53:09.680Z,19.78
2018-02-16T10:54:18.645Z,19.66
2018-02-16T10:55:27.884Z,19.66
2018-02-16T10:56:37.089Z,19.69
2018-02-16T10:57:46.310Z,19.69
2018-02-16T10:58:55.552Z,19.74
2018-02-16T11:00:04.803Z,19.74
2018-02-16T11:01:13.775Z,19.69
2018-02-16T11:02:22.512Z,19.62
2018-02-16T11:03:31.484Z,19.62
2018-02-16T11:04:40.715Z,19.73
2018-02-16T11:05:49.685Z,19.63
2018-02-16T11:06:58.662Z,19.66
2018-02-16T11:08:08.147Z,19.69
2018-02-16T11:09:17.369Z,19.77
2018-02-16T11:10:26.077Z,19.78
2018-02-16T11:11:35.313Z,19.76
2018-02-16T11:12:44.269Z,19.71
2018-02-16T11:13:53.231Z,19.71
2018-02-16T11:15:02.253Z,19.74
2018-02-16T11:16:11.558Z,19.71
2018-02-16T11:17:20.658Z,19.74
2018-02-16T11:18:29.654Z,19.8
2018-02-16T11:19:38.892Z,19.74
2018-02-16T11:20:48.399Z,19.81
2018-02-16T11:21:57.653Z,19.74
2018-02-16T11:23:06.887Z,19.77
2018-02-16T11:24:15.652Z,19.87
2018-02-16T11:25:24.876Z,19.83
2018-02-16T11:26:34.129Z,19.83
2018-02-16T11:27:43.068Z,19.83
2018-02-16T11:28:51.828Z,19.8
2018-02-16T11:30:00.875Z,19.86
2018-02-16T11:31:09.842Z,19.83
2018-02-16T11:32:18.827Z,19.84
2018-02-16T11:33:27.842Z,19.8
2018-02-16T11:34:37.097Z,19.77
2018-02-16T11:35:46.747Z,19.81
2018-02-16T11:36:55.644Z,19.8
2018-02-16T11:38:04.357Z,19.83
2018-02-16T11:39:13.372Z,19.77
2018-02-16T11:40:23.378Z,19.76
2018-02-16T11:41:33.044Z,19.84
2018-02-16T11:42:42.292Z,19.76
2018-02-16T11:43:50.980Z,19.73
2018-02-16T11:44:59.932Z,19.73
2018-02-16T11:46:09.176Z,19.69
2018-02-16T11:47:18.420Z,19.77
2018-02-16T11:48:27.842Z,19.73
2018-02-16T11:49:36.830Z,19.66
2018-02-16T11:50:46.093Z,19.62
2018-02-16T11:51:55.105Z,19.62
2018-02-16T11:53:04.090Z,19.69
2018-02-16T11:54:12.819Z,19.69
2018-02-16T11:55:22.327Z,19.68
2018-02-16T11:56:31.308Z,19.68
2018-02-16T11:57:40.001Z,19.66
2018-02-16T11:58:49.243Z,19.55
2018-02-16T11:59:58.340Z,19.65
2018-02-16T12:01:07.420Z,19.62
2018-02-16T12:02:16.394Z,19.58
2018-02-16T12:03:25.090Z,19.56
2018-02-16T12:04:34.308Z,19.61
2018-02-16T12:05:43.316Z,19.56
2018-02-16T12:06:52.279Z,19.62
2018-02-16T12:08:01.038Z,19.59
2018-02-16T12:09:09.748Z,19.65
2018-02-16T12:10:18.744Z,19.61
2018-02-16T12:11:27.437Z,19.61
2018-02-16T12:12:36.651Z,19.58
2018-02-16T12:13:45.944Z,19.63
2018-02-16T12:14:54.927Z,19.51
2018-02-16T12:16:04.694Z,19.54
2018-02-16T12:17:13.366Z,19.58
2018-02-16T12:18:22.858Z,19.55
2018-02-16T12:19:31.705Z,19.59
2018-02-16T12:20:40.929Z,19.51
2018-02-16T12:21:50.442Z,19.55
2018-02-16T12:22:59.699Z,19.56
2018-02-16T12:24:08.928Z,19.51
2018-02-16T12:25:17.885Z,19.54
2018-02-16T12:26:26.878Z,19.54
2018-02-16T12:27:36.117Z,19.46
2018-02-16T12:28:45.197Z,19.51
2018-02-16T12:29:54.913Z,19.47
2018-02-16T12:31:04.606Z,19.51
2018-02-16T12:32:13.576Z,19.51
2018-02-16T12:33:22.553Z,19.5
2018-02-16T12:34:31.859Z,19.54
2018-02-16T12:35:40.877Z,19.51
2018-02-16T12:36:50.037Z,19.54
2018-02-16T12:37:59.065Z,19.59
2018-02-16T12:39:08.312Z,19.54
2018-02-16T12:40:17.343Z,19.48
2018-02-16T12:41:26.294Z,19.51
2018-02-16T12:42:36.065Z,19.5
2018-02-16T12:43:44.823Z,19.55
2018-02-16T12:44:53.933Z,19.54
2018-02-16T12:46:03.083Z,19.56
2018-02-16T12:47:12.095Z,19.54
2018-02-16T12:48:21.357Z,19.58
2018-02-16T12:49:30.368Z,19.56
2018-02-16T12:50:39.628Z,19.56
2018-02-16T12:51:48.609Z,19.59
2018-02-16T12:52:57.869Z,19.56
2018-02-16T12:54:07.074Z,19.54
2018-02-16T12:55:16.130Z,19.59
2018-02-16T12:56:25.103Z,19.59
2018-02-16T12:57:34.146Z,19.56
2018-02-16T12:58:43.395Z,19.59
2018-02-16T12:59:52.681Z,19.63
2018-02-16T13:01:01.651Z,19.65
2018-02-16T13:02:10.608Z,19.62
2018-02-16T13:03:19.635Z,19.66
2018-02-16T13:04:28.308Z,19.58
2018-02-16T13:05:37.265Z,19.62
2018-02-16T13:06:46.734Z,19.58
2018-02-16T13:07:55.706Z,19.65
2018-02-16T13:09:04.421Z,19.68
2018-02-16T13:10:13.366Z,19.61
2018-02-16T13:11:22.610Z,19.58
2018-02-16T13:12:32.094Z,19.68
2018-02-16T13:13:40.773Z,19.56
2018-02-16T13:14:49.732Z,19.63
2018-02-16T13:15:58.441Z,19.62
2018-02-16T13:17:07.656Z,19.59
2018-02-16T13:18:16.873Z,19.59
2018-02-16T13:19:26.084Z,19.59
2018-02-16T13:20:35.323Z,19.62
2018-02-16T13:21:44.282Z,19.61
2018-02-16T13:22:53.245Z,19.56
2018-02-16T13:24:02.226Z,19.56
2018-02-16T13:25:11.474Z,19.56
2018-02-16T13:26:20.710Z,19.55
2018-02-16T13:27:29.648Z,19.56
2018-02-16T13:28:38.611Z,19.55
2018-02-16T13:29:47.350Z,19.55
2018-02-16T13:30:56.594Z,19.58
2018-02-16T13:32:05.596Z,19.56
2018-02-16T13:33:14.265Z,19.55
2018-02-16T13:34:23.773Z,19.56
2018-02-16T13:35:32.462Z,19.59
2018-02-16T13:36:41.160Z,19.55
2018-02-16T13:37:50.949Z,19.54
2018-02-16T13:38:59.713Z,19.5
2018-02-16T13:40:08.708Z,19.5
2018-02-16T13:41:17.688Z,19.47
2018-02-16T13:42:26.634Z,19.55
2018-02-16T13:43:35.850Z,19.62
2018-02-16T13:44:44.552Z,19.56
2018-02-16T13:45:53.232Z,19.55
2018-02-16T13:47:02.789Z,19.59
2018-02-16T13:48:12.021Z,19.55
2018-02-16T13:49:20.832Z,19.55
2018-02-16T13:50:29.830Z,19.56
2018-02-16T13:51:38.540Z,19.58
2018-02-16T13:52:47.295Z,19.55
2018-02-16T13:53:56.794Z,19.58
2018-02-16T13:55:05.570Z,19.56
2018-02-16T13:56:14.815Z,19.59
2018-02-16T13:57:24.557Z,19.51
2018-02-16T13:58:33.265Z,19.54
2018-02-16T13:59:42.551Z,19.56
2018-02-16T14:00:51.931Z,19.55
2018-02-16T14:02:01.156Z,19.47
2018-02-16T14:03:10.145Z,19.55
2018-02-16T14:04:19.576Z,19.51
2018-02-16T14:05:28.600Z,19.51
2018-02-16T14:06:37.291Z,19.48
2018-02-16T14:07:45.953Z,19.47
2018-02-16T14:08:54.934Z,19.55
2018-02-16T14:10:03.628Z,19.55
2018-02-16T14:11:12.861Z,19.5
2018-02-16T14:12:21.808Z,19.54
2018-02-16T14:13:30.515Z,19.55
2018-02-16T14:14:39.755Z,19.41
2018-02-16T14:15:48.514Z,19.48
2018-02-16T14:16:58.013Z,19.48
2018-02-16T14:18:06.735Z,19.5
2018-02-16T14:19:15.731Z,19.46
2018-02-16T14:20:25.039Z,19.43
2018-02-16T14:21:33.758Z,19.43
2018-02-16T14:22:43.246Z,19.51
2018-02-16T14:23:52.243Z,19.44
2018-02-16T14:25:00.956Z,19.48
2018-02-16T14:26:10.362Z,19.4
2018-02-16T14:27:19.104Z,19.47
2018-02-16T14:28:28.075Z,19.55
2018-02-16T14:29:36.865Z,19.48
2018-02-16T14:30:45.888Z,19.44
2018-02-16T14:31:54.840Z,19.51
2018-02-16T14:33:04.111Z,19.44
2018-02-16T14:34:13.077Z,19.47
2018-02-16T14:35:22.143Z,19.43
2018-02-16T14:36:31.633Z,19.46
2018-02-16T14:37:40.450Z,19.51
2018-02-16T14:38:49.969Z,19.47
2018-02-16T14:39:58.998Z,19.48
2018-02-16T14:41:08.234Z,19.46
2018-02-16T14:42:17.482Z,19.48
2018-02-16T14:43:26.478Z,19.47
2018-02-16T14:44:35.452Z,19.5
2018-02-16T14:45:44.461Z,19.47
2018-02-16T14:46:53.673Z,19.46
2018-02-16T14:48:02.896Z,19.4
2018-02-16T14:49:11.638Z,19.44
2018-02-16T14:50:20.381Z,19.44
2018-02-16T14:51:29.142Z,19.46